Yoshomaru — JD3048 — position and weather

sailwx.info

Track history (hours):
 
Tides and Currents Weather Stations Pressure Air Temp Water Temp Dewpoint Dewpoint Depression Visibility Wind Speed Wind Dir Waves Ship Positions

Yoshomaru

Last reported at 2018-Jun-16 04:03 UTC. Time now 2018-Jun-18 05:28 UTC.
Position N 33°53' E 135°03'.

Length 63 m; draft 4.3 m.

Type: Tanker. MMSI: 431001343.

Date/timePositionNaut miles runAvg speedWind from/ knotsBaromVisibWave heightAir tempDewpointWater temp
2018-Jun-16 04:03N 33°53' E 135°03'312.1
2018-Jun-16 03:48N 33°56' E 135°03'511.9
2018-Jun-16 03:25N 34°00' E 135°03'711.7
2018-Jun-16 02:51N 34°07' E 135°05'410.3
2018-Jun-16 02:26N 34°09' E 135°10'2 3.6
2018-Jun-16 01:55N 34°09' E 135°12'0 0.0
2018-Jun-16 01:31N 34°09' E 135°12'0 0.0
2018-Jun-16 01:00N 34°09' E 135°12'0 0.0
2018-Jun-16 00:30N 34°09' E 135°12'0 0.0
2018-Jun-15 23:56N 34°09' E 135°12'2 3.6
2018-Jun-15 23:30N 34°09' E 135°10'5 9.6
2018-Jun-15 23:00N 34°13' E 135°07'1 1.8
2018-Jun-15 22:30N 34°13' E 135°09'0 0.0
2018-Jun-15 22:00N 34°13' E 135°09'0 0.0
2018-Jun-15 21:30N 34°13' E 135°09'0 0.0
2018-Jun-15 21:00N 34°13' E 135°09'0 0.0
2018-Jun-15 20:29N 34°13' E 135°09'0 0.0
2018-Jun-15 20:00N 34°13' E 135°09'0 0.0
2018-Jun-15 19:31N 34°13' E 135°09'0 0.0
2018-Jun-15 19:01N 34°13' E 135°09'0 0.0
2018-Jun-15 18:30N 34°13' E 135°09'0 0.0
2018-Jun-15 18:00N 34°13' E 135°09'0 0.0
2018-Jun-15 17:30N 34°13' E 135°09'0 0.0
2018-Jun-15 17:00N 34°13' E 135°09'0 0.0
2018-Jun-15 16:30N 34°13' E 135°09'0 0.0
2018-Jun-15 16:00N 34°13' E 135°09'0 0.0
2018-Jun-15 15:30N 34°13' E 135°09'0 0.0
2018-Jun-15 15:01N 34°13' E 135°09'0 0.0
2018-Jun-15 14:30N 34°13' E 135°09'0 0.0
2018-Jun-15 14:00N 34°13' E 135°09'0 0.0
2018-Jun-15 13:31N 34°13' E 135°09'0 0.0
2018-Jun-15 13:00N 34°13' E 135°09'0 0.0
2018-Jun-15 12:30N 34°13' E 135°09'0 0.0
2018-Jun-15 12:00N 34°13' E 135°09'0 0.0
2018-Jun-15 11:31N 34°13' E 135°09'0 0.0
2018-Jun-15 11:00N 34°13' E 135°09'0 0.0
2018-Jun-15 10:30N 34°13' E 135°09'0 0.0
2018-Jun-15 10:00N 34°13' E 135°09'0 0.0
2018-Jun-15 09:30N 34°13' E 135°09'0 0.0
2018-Jun-15 09:00N 34°13' E 135°09'0 0.0
2018-Jun-15 08:31N 34°13' E 135°09'0 0.0
2018-Jun-15 08:00N 34°13' E 135°09'0 0.0
2018-Jun-15 07:30N 34°13' E 135°09'0 0.0
2018-Jun-15 07:00N 34°13' E 135°09'0 0.0
2018-Jun-15 06:30N 34°13' E 135°09'0 0.0
2018-Jun-15 06:00N 34°13' E 135°09'0 0.0
2018-Jun-15 05:30N 34°13' E 135°09'0 0.0
2018-Jun-15 05:00N 34°13' E 135°09'0 0.6
2018-Jun-15 04:30N 34°13' E 135°08'510.4
2018-Jun-15 04:00N 34°16' E 135°03'713.4
2018-Jun-15 03:30N 34°22' E 135°07'712.8
2018-Jun-15 02:58N 34°27' E 135°13'612.1
2018-Jun-15 02:26N 34°32' E 135°18'611.9
2018-Jun-15 01:56N 34°36' E 135°24'2 4.5
2018-Jun-15 01:30N 34°34' E 135°26'0 0.0
2018-Jun-15 00:59N 34°34' E 135°26'0 0.0
2018-Jun-15 00:30N 34°34' E 135°26'0 0.0
2018-Jun-15 00:00N 34°34' E 135°26'0 0.0
2018-Jun-14 23:30N 34°34' E 135°26'0 0.0
2018-Jun-14 23:00N 34°34' E 135°26'0 0.2
2018-Jun-14 22:30N 34°35' E 135°26'3 5.5
2018-Jun-14 22:00N 34°36' E 135°23'0 0.8
2018-Jun-14 21:30N 34°36' E 135°23'0 0.0
2018-Jun-14 21:01N 34°36' E 135°23'0 0.0
2018-Jun-14 20:30N 34°36' E 135°23'2 3.9
2018-Jun-14 20:00N 34°36' E 135°20'510.7
2018-Jun-14 19:31N 34°35' E 135°14'611.2
2018-Jun-14 19:00N 34°35' E 135°07'1412.1
2018-Jun-14 17:51N 34°34' E 134°50'511.4
2018-Jun-14 17:24N 34°31' E 134°45'910.9
2018-Jun-14 16:35N 34°28' E 134°35'111.3
2018-Jun-14 16:30N 34°28' E 134°34'510.6
2018-Jun-14 15:59N 34°26' E 134°28'4 0.2
2018-Jun-13 14:26N 34°25' E 134°22'512.0
2018-Jun-13 14:00N 34°27' E 134°28'612.2
2018-Jun-13 13:30N 34°30' E 134°35'712.6
2018-Jun-13 12:59N 34°32' E 134°43'713.7
2018-Jun-13 12:29N 34°34' E 134°50'714.5
2018-Jun-13 12:00N 34°37' E 134°58'713.6
2018-Jun-13 11:30N 34°36' E 135°06'611.2
2018-Jun-13 11:01N 34°35' E 135°13'812.0
2018-Jun-13 10:22N 34°33' E 135°22'3 9.2
2018-Jun-13 10:01N 34°33' E 135°26'0 0.1
2018-Jun-13 09:30N 34°33' E 135°26'0 0.0
2018-Jun-13 09:00N 34°33' E 135°26'0 0.0
2018-Jun-13 08:31N 34°33' E 135°26'0 0.0
2018-Jun-13 08:00N 34°33' E 135°26'0 0.0
2018-Jun-13 07:31N 34°33' E 135°26'0 0.0
2018-Jun-13 07:01N 34°33' E 135°26'0 0.0
2018-Jun-13 06:30N 34°33' E 135°26'0 0.1
2018-Jun-13 06:01N 34°33' E 135°26'4 8.2
2018-Jun-13 05:28N 34°31' E 135°21'510.1
2018-Jun-13 05:00N 34°29' E 135°16'5 9.6
2018-Jun-13 04:30N 34°26' E 135°11'5 9.3
2018-Jun-13 04:00N 34°22' E 135°08'5 9.8
2018-Jun-13 03:30N 34°18' E 135°04'4 8.2
2018-Jun-13 03:01N 34°14' E 135°04'510.2
2018-Jun-13 02:28N 34°10' E 135°08'3 5.8
2018-Jun-13 01:53N 34°09' E 135°12'0 0.0
2018-Jun-13 01:30N 34°09' E 135°12'0 0.0
2018-Jun-13 00:55N 34°09' E 135°12'0 0.1
2018-Jun-13 00:29N 34°09' E 135°12'0 0.0
2018-Jun-12 23:55N 34°09' E 135°12'2 4.3
2018-Jun-12 23:30N 34°09' E 135°10'0 0.2
2018-Jun-12 23:00N 34°09' E 135°10'0 0.1
2018-Jun-12 22:30N 34°09' E 135°10'0 0.0
2018-Jun-12 22:00N 34°09' E 135°10'0 0.1
2018-Jun-12 21:30N 34°09' E 135°10'0 0.0
2018-Jun-12 21:00N 34°09' E 135°10'0 0.1
2018-Jun-12 20:31N 34°09' E 135°10'0 0.0
2018-Jun-12 20:01N 34°09' E 135°10'0 0.1
2018-Jun-12 19:30N 34°09' E 135°10'0 0.1
2018-Jun-12 19:00N 34°09' E 135°10'0 0.1
2018-Jun-12 18:30N 34°09' E 135°10'0 0.0
2018-Jun-12 18:01N 34°09' E 135°10'0 0.0
2018-Jun-12 17:29N 34°09' E 135°10'0 0.0
2018-Jun-12 17:00N 34°09' E 135°10'0 0.1
2018-Jun-12 16:30N 34°09' E 135°10'0 0.0
2018-Jun-12 15:57N 34°09' E 135°10'0 0.0
2018-Jun-12 15:09N 34°09' E 135°10'0 0.3
2018-Jun-12 15:00N 34°09' E 135°10'0 0.0
2018-Jun-12 14:29N 34°09' E 135°10'0 0.0
2018-Jun-12 13:59N 34°09' E 135°10'0 0.1
2018-Jun-12 13:26N 34°09' E 135°10'0 0.0
2018-Jun-12 13:00N 34°09' E 135°10'1 2.7
2018-Jun-12 12:30N 34°09' E 135°08'611.4
2018-Jun-12 12:00N 34°10' E 135°01'611.2
2018-Jun-12 11:30N 34°11' E 134°55'21 8.3
2018-Jun-12 08:59N 34°18' E 134°31'510.1
2018-Jun-12 08:30N 34°19' E 134°25'2 0.0
2018-Jun-10 06:21N 34°21' E 134°24'511.1
2018-Jun-10 05:55N 34°19' E 134°30'1810.6
2018-Jun-10 04:14N 34°11' E 134°49'311.5
2018-Jun-10 04:00N 34°11' E 134°52'611.6
2018-Jun-10 03:30N 34°10' E 134°59'510.8
2018-Jun-10 03:00N 34°09' E 135°06'5 9.5
2018-Jun-10 02:27N 34°09' E 135°12'0 0.1
2018-Jun-10 01:57N 34°09' E 135°12'0 0.0
2018-Jun-10 01:30N 34°09' E 135°12'0 0.1
2018-Jun-10 01:00N 34°09' E 135°12'0 0.1
2018-Jun-10 00:29N 34°09' E 135°12'2 4.0
2018-Jun-10 00:01N 34°09' E 135°10'0 0.1
2018-Jun-09 23:30N 34°09' E 135°10'0 0.0
2018-Jun-09 23:00N 34°09' E 135°10'0 0.0
2018-Jun-09 22:30N 34°09' E 135°10'0 0.0
2018-Jun-09 22:00N 34°09' E 135°10'0 0.0
2018-Jun-09 21:30N 34°09' E 135°10'0 0.0
2018-Jun-09 21:00N 34°09' E 135°10'0 0.0
2018-Jun-09 20:30N 34°09' E 135°10'0 0.0
2018-Jun-09 20:00N 34°09' E 135°10'0 0.0
2018-Jun-09 19:30N 34°09' E 135°10'0 0.0
2018-Jun-09 19:00N 34°09' E 135°10'0 0.0
2018-Jun-09 18:30N 34°09' E 135°10'0 0.0
2018-Jun-09 18:00N 34°09' E 135°10'0 0.0
2018-Jun-09 17:30N 34°09' E 135°10'0 0.0
2018-Jun-09 16:59N 34°09' E 135°10'0 0.0
2018-Jun-09 16:30N 34°09' E 135°10'0 0.0
2018-Jun-09 16:00N 34°09' E 135°10'0 0.0
2018-Jun-09 15:00N 34°09' E 135°10'0 0.0
2018-Jun-09 14:30N 34°09' E 135°10'0 0.0
2018-Jun-09 14:01N 34°09' E 135°10'0 0.0
2018-Jun-09 13:30N 34°09' E 135°10'0 0.0
2018-Jun-09 12:57N 34°09' E 135°10'2 5.5
2018-Jun-09 12:30N 34°11' E 135°08'612.2
2018-Jun-09 12:00N 34°16' E 135°03'612.8
2018-Jun-09 11:31N 34°21' E 135°06'612.2
2018-Jun-09 11:00N 34°26' E 135°11'612.5
2018-Jun-09 10:29N 34°30' E 135°17'612.5
2018-Jun-09 09:59N 34°33' E 135°24'2 3.8
2018-Jun-09 09:30N 34°33' E 135°26'0 0.0
2018-Jun-09 09:00N 34°33' E 135°26'0 0.0
2018-Jun-09 08:30N 34°33' E 135°26'0 0.0
2018-Jun-09 08:00N 34°33' E 135°26'0 0.0
2018-Jun-09 07:30N 34°33' E 135°26'0 0.0
2018-Jun-09 07:00N 34°33' E 135°26'0 0.0
2018-Jun-09 06:30N 34°33' E 135°26'0 0.0
2018-Jun-09 05:59N 34°33' E 135°26'1 1.1
2018-Jun-09 05:30N 34°33' E 135°25'510.6
2018-Jun-09 05:01N 34°31' E 135°19'510.8
2018-Jun-09 04:30N 34°28' E 135°14'510.5
2018-Jun-09 04:01N 34°24' E 135°09'510.6
2018-Jun-09 03:30N 34°20' E 135°05'510.3
2018-Jun-09 03:00N 34°15' E 135°03'611.0
2018-Jun-09 02:30N 34°11' E 135°07'4 9.1
2018-Jun-09 02:01N 34°09' E 135°12'0 0.1
2018-Jun-09 01:22N 34°09' E 135°12'0 0.0
2018-Jun-09 00:59N 34°09' E 135°12'0 0.0
2018-Jun-09 00:13N 34°09' E 135°12'0 0.0
2018-Jun-08 23:56N 34°09' E 135°12'2 4.1
2018-Jun-08 23:30N 34°09' E 135°10'0 0.0
2018-Jun-08 22:59N 34°09' E 135°10'0 0.0
2018-Jun-08 22:31N 34°09' E 135°10'0 0.0
2018-Jun-08 22:00N 34°09' E 135°10'0 0.0
2018-Jun-08 21:30N 34°09' E 135°10'0 0.0
2018-Jun-08 21:00N 34°09' E 135°10'0 0.1
2018-Jun-08 20:31N 34°09' E 135°10'0 0.0
2018-Jun-08 20:00N 34°09' E 135°10'0 0.4
2018-Jun-08 19:30N 34°09' E 135°10'611.1
2018-Jun-08 18:58N 34°05' E 135°04'511.8
2018-Jun-08 18:30N 33°60' E 135°03'612.0
2018-Jun-08 17:59N 33°53' E 135°03'244 6.7
2018-Jun-07 05:17N 35°10' E 139°44'611.2
2018-Jun-07 04:47N 35°15' E 139°46'311.7
2018-Jun-07 04:30N 35°18' E 139°44'510.9
2018-Jun-07 04:01N 35°23' E 139°42'610.9
2018-Jun-07 03:30N 35°27' E 139°47'9 1.0
2018-Jun-06 18:30N 35°32' E 139°56'510.9
2018-Jun-06 18:00N 35°28' E 139°51'510.8
2018-Jun-06 17:30N 35°24' E 139°46'510.7
2018-Jun-06 17:01N 35°20' E 139°44'510.2
2018-Jun-06 16:30N 35°15' E 139°47'  
Track history (hours):
 
Tides and Currents Weather Stations Pressure Air Temp Water Temp Dewpoint Dewpoint Depression Visibility Wind Speed Wind Dir Waves Ship Positions

Yoshomaru

Last reported at 2018-Jun-16 04:03 UTC. Time now 2018-Jun-18 05:28 UTC.
Position N 33°53' E 135°03'.

Length 63 m; draft 4.3 m.

Type: Tanker. MMSI: 431001343.

Date/timePositionNaut miles runAvg speedWind from/ knotsBaromVisibWave heightAir tempDewpointWater temp
2018-Jun-16 04:03N 33°53' E 135°03'312.1
2018-Jun-16 03:48N 33°56' E 135°03'511.9
2018-Jun-16 03:25N 34°00' E 135°03'711.7
2018-Jun-16 02:51N 34°07' E 135°05'410.3
2018-Jun-16 02:26N 34°09' E 135°10'2 3.6
2018-Jun-16 01:55N 34°09' E 135°12'0 0.0
2018-Jun-16 01:31N 34°09' E 135°12'0 0.0
2018-Jun-16 01:00N 34°09' E 135°12'0 0.0
2018-Jun-16 00:30N 34°09' E 135°12'0 0.0
2018-Jun-15 23:56N 34°09' E 135°12'2 3.6
2018-Jun-15 23:30N 34°09' E 135°10'5 9.6
2018-Jun-15 23:00N 34°13' E 135°07'1 1.8
2018-Jun-15 22:30N 34°13' E 135°09'0 0.0
2018-Jun-15 22:00N 34°13' E 135°09'0 0.0
2018-Jun-15 21:30N 34°13' E 135°09'0 0.0
2018-Jun-15 21:00N 34°13' E 135°09'0 0.0
2018-Jun-15 20:29N 34°13' E 135°09'0 0.0
2018-Jun-15 20:00N 34°13' E 135°09'0 0.0
2018-Jun-15 19:31N 34°13' E 135°09'0 0.0
2018-Jun-15 19:01N 34°13' E 135°09'0 0.0
2018-Jun-15 18:30N 34°13' E 135°09'0 0.0
2018-Jun-15 18:00N 34°13' E 135°09'0 0.0
2018-Jun-15 17:30N 34°13' E 135°09'0 0.0
2018-Jun-15 17:00N 34°13' E 135°09'0 0.0
2018-Jun-15 16:30N 34°13' E 135°09'0 0.0
2018-Jun-15 16:00N 34°13' E 135°09'0 0.0
2018-Jun-15 15:30N 34°13' E 135°09'0 0.0
2018-Jun-15 15:01N 34°13' E 135°09'0 0.0
2018-Jun-15 14:30N 34°13' E 135°09'0 0.0
2018-Jun-15 14:00N 34°13' E 135°09'0 0.0
2018-Jun-15 13:31N 34°13' E 135°09'0 0.0
2018-Jun-15 13:00N 34°13' E 135°09'0 0.0
2018-Jun-15 12:30N 34°13' E 135°09'0 0.0
2018-Jun-15 12:00N 34°13' E 135°09'0 0.0
2018-Jun-15 11:31N 34°13' E 135°09'0 0.0
2018-Jun-15 11:00N 34°13' E 135°09'0 0.0
2018-Jun-15 10:30N 34°13' E 135°09'0 0.0
2018-Jun-15 10:00N 34°13' E 135°09'0 0.0
2018-Jun-15 09:30N 34°13' E 135°09'0 0.0
2018-Jun-15 09:00N 34°13' E 135°09'0 0.0
2018-Jun-15 08:31N 34°13' E 135°09'0 0.0
2018-Jun-15 08:00N 34°13' E 135°09'0 0.0
2018-Jun-15 07:30N 34°13' E 135°09'0 0.0
2018-Jun-15 07:00N 34°13' E 135°09'0 0.0
2018-Jun-15 06:30N 34°13' E 135°09'0 0.0
2018-Jun-15 06:00N 34°13' E 135°09'0 0.0
2018-Jun-15 05:30N 34°13' E 135°09'0 0.0
2018-Jun-15 05:00N 34°13' E 135°09'0 0.6
2018-Jun-15 04:30N 34°13' E 135°08'510.4
2018-Jun-15 04:00N 34°16' E 135°03'713.4
2018-Jun-15 03:30N 34°22' E 135°07'712.8
2018-Jun-15 02:58N 34°27' E 135°13'612.1
2018-Jun-15 02:26N 34°32' E 135°18'611.9
2018-Jun-15 01:56N 34°36' E 135°24'2 4.5
2018-Jun-15 01:30N 34°34' E 135°26'0 0.0
2018-Jun-15 00:59N 34°34' E 135°26'0 0.0
2018-Jun-15 00:30N 34°34' E 135°26'0 0.0
2018-Jun-15 00:00N 34°34' E 135°26'0 0.0
2018-Jun-14 23:30N 34°34' E 135°26'0 0.0
2018-Jun-14 23:00N 34°34' E 135°26'0 0.2
2018-Jun-14 22:30N 34°35' E 135°26'3 5.5
2018-Jun-14 22:00N 34°36' E 135°23'0 0.8
2018-Jun-14 21:30N 34°36' E 135°23'0 0.0
2018-Jun-14 21:01N 34°36' E 135°23'0 0.0
2018-Jun-14 20:30N 34°36' E 135°23'2 3.9
2018-Jun-14 20:00N 34°36' E 135°20'510.7
2018-Jun-14 19:31N 34°35' E 135°14'611.2
2018-Jun-14 19:00N 34°35' E 135°07'1412.1
2018-Jun-14 17:51N 34°34' E 134°50'511.4
2018-Jun-14 17:24N 34°31' E 134°45'910.9
2018-Jun-14 16:35N 34°28' E 134°35'111.3
2018-Jun-14 16:30N 34°28' E 134°34'510.6
2018-Jun-14 15:59N 34°26' E 134°28'4 0.2
2018-Jun-13 14:26N 34°25' E 134°22'512.0
2018-Jun-13 14:00N 34°27' E 134°28'612.2
2018-Jun-13 13:30N 34°30' E 134°35'712.6
2018-Jun-13 12:59N 34°32' E 134°43'713.7
2018-Jun-13 12:29N 34°34' E 134°50'714.5
2018-Jun-13 12:00N 34°37' E 134°58'713.6
2018-Jun-13 11:30N 34°36' E 135°06'611.2
2018-Jun-13 11:01N 34°35' E 135°13'812.0
2018-Jun-13 10:22N 34°33' E 135°22'3 9.2
2018-Jun-13 10:01N 34°33' E 135°26'0 0.1
2018-Jun-13 09:30N 34°33' E 135°26'0 0.0
2018-Jun-13 09:00N 34°33' E 135°26'0 0.0
2018-Jun-13 08:31N 34°33' E 135°26'0 0.0
2018-Jun-13 08:00N 34°33' E 135°26'0 0.0
2018-Jun-13 07:31N 34°33' E 135°26'0 0.0
2018-Jun-13 07:01N 34°33' E 135°26'0 0.0
2018-Jun-13 06:30N 34°33' E 135°26'0 0.1
2018-Jun-13 06:01N 34°33' E 135°26'4 8.2
2018-Jun-13 05:28N 34°31' E 135°21'510.1
2018-Jun-13 05:00N 34°29' E 135°16'5 9.6
2018-Jun-13 04:30N 34°26' E 135°11'5 9.3
2018-Jun-13 04:00N 34°22' E 135°08'5 9.8
2018-Jun-13 03:30N 34°18' E 135°04'4 8.2
2018-Jun-13 03:01N 34°14' E 135°04'510.2
2018-Jun-13 02:28N 34°10' E 135°08'3 5.8
2018-Jun-13 01:53N 34°09' E 135°12'0 0.0
2018-Jun-13 01:30N 34°09' E 135°12'0 0.0
2018-Jun-13 00:55N 34°09' E 135°12'0 0.1
2018-Jun-13 00:29N 34°09' E 135°12'0 0.0
2018-Jun-12 23:55N 34°09' E 135°12'2 4.3
2018-Jun-12 23:30N 34°09' E 135°10'0 0.2
2018-Jun-12 23:00N 34°09' E 135°10'0 0.1
2018-Jun-12 22:30N 34°09' E 135°10'0 0.0
2018-Jun-12 22:00N 34°09' E 135°10'0 0.1
2018-Jun-12 21:30N 34°09' E 135°10'0 0.0
2018-Jun-12 21:00N 34°09' E 135°10'0 0.1
2018-Jun-12 20:31N 34°09' E 135°10'0 0.0
2018-Jun-12 20:01N 34°09' E 135°10'0 0.1
2018-Jun-12 19:30N 34°09' E 135°10'0 0.1
2018-Jun-12 19:00N 34°09' E 135°10'0 0.1
2018-Jun-12 18:30N 34°09' E 135°10'0 0.0
2018-Jun-12 18:01N 34°09' E 135°10'0 0.0
2018-Jun-12 17:29N 34°09' E 135°10'0 0.0
2018-Jun-12 17:00N 34°09' E 135°10'0 0.1
2018-Jun-12 16:30N 34°09' E 135°10'0 0.0
2018-Jun-12 15:57N 34°09' E 135°10'0 0.0
2018-Jun-12 15:09N 34°09' E 135°10'0 0.3
2018-Jun-12 15:00N 34°09' E 135°10'0 0.0
2018-Jun-12 14:29N 34°09' E 135°10'0 0.0
2018-Jun-12 13:59N 34°09' E 135°10'0 0.1
2018-Jun-12 13:26N 34°09' E 135°10'0 0.0
2018-Jun-12 13:00N 34°09' E 135°10'1 2.7
2018-Jun-12 12:30N 34°09' E 135°08'611.4
2018-Jun-12 12:00N 34°10' E 135°01'611.2
2018-Jun-12 11:30N 34°11' E 134°55'21 8.3
2018-Jun-12 08:59N 34°18' E 134°31'510.1
2018-Jun-12 08:30N 34°19' E 134°25'2 0.0
2018-Jun-10 06:21N 34°21' E 134°24'511.1
2018-Jun-10 05:55N 34°19' E 134°30'1810.6
2018-Jun-10 04:14N 34°11' E 134°49'311.5
2018-Jun-10 04:00N 34°11' E 134°52'611.6
2018-Jun-10 03:30N 34°10' E 134°59'510.8
2018-Jun-10 03:00N 34°09' E 135°06'5 9.5
2018-Jun-10 02:27N 34°09' E 135°12'0 0.1
2018-Jun-10 01:57N 34°09' E 135°12'0 0.0
2018-Jun-10 01:30N 34°09' E 135°12'0 0.1
2018-Jun-10 01:00N 34°09' E 135°12'0 0.1
2018-Jun-10 00:29N 34°09' E 135°12'2 4.0
2018-Jun-10 00:01N 34°09' E 135°10'0 0.1
2018-Jun-09 23:30N 34°09' E 135°10'0 0.0
2018-Jun-09 23:00N 34°09' E 135°10'0 0.0
2018-Jun-09 22:30N 34°09' E 135°10'0 0.0
2018-Jun-09 22:00N 34°09' E 135°10'0 0.0
2018-Jun-09 21:30N 34°09' E 135°10'0 0.0
2018-Jun-09 21:00N 34°09' E 135°10'0 0.0
2018-Jun-09 20:30N 34°09' E 135°10'0 0.0
2018-Jun-09 20:00N 34°09' E 135°10'0 0.0
2018-Jun-09 19:30N 34°09' E 135°10'0 0.0
2018-Jun-09 19:00N 34°09' E 135°10'0 0.0
2018-Jun-09 18:30N 34°09' E 135°10'0 0.0
2018-Jun-09 18:00N 34°09' E 135°10'0 0.0
2018-Jun-09 17:30N 34°09' E 135°10'0 0.0
2018-Jun-09 16:59N 34°09' E 135°10'0 0.0
2018-Jun-09 16:30N 34°09' E 135°10'0 0.0
2018-Jun-09 16:00N 34°09' E 135°10'0 0.0
2018-Jun-09 15:00N 34°09' E 135°10'0 0.0
2018-Jun-09 14:30N 34°09' E 135°10'0 0.0
2018-Jun-09 14:01N 34°09' E 135°10'0 0.0
2018-Jun-09 13:30N 34°09' E 135°10'0 0.0
2018-Jun-09 12:57N 34°09' E 135°10'2 5.5
2018-Jun-09 12:30N 34°11' E 135°08'612.2
2018-Jun-09 12:00N 34°16' E 135°03'612.8
2018-Jun-09 11:31N 34°21' E 135°06'612.2
2018-Jun-09 11:00N 34°26' E 135°11'612.5
2018-Jun-09 10:29N 34°30' E 135°17'612.5
2018-Jun-09 09:59N 34°33' E 135°24'2 3.8
2018-Jun-09 09:30N 34°33' E 135°26'0 0.0
2018-Jun-09 09:00N 34°33' E 135°26'0 0.0
2018-Jun-09 08:30N 34°33' E 135°26'0 0.0
2018-Jun-09 08:00N 34°33' E 135°26'0 0.0
2018-Jun-09 07:30N 34°33' E 135°26'0 0.0
2018-Jun-09 07:00N 34°33' E 135°26'0 0.0
2018-Jun-09 06:30N 34°33' E 135°26'0 0.0
2018-Jun-09 05:59N 34°33' E 135°26'1 1.1
2018-Jun-09 05:30N 34°33' E 135°25'510.6
2018-Jun-09 05:01N 34°31' E 135°19'510.8
2018-Jun-09 04:30N 34°28' E 135°14'510.5
2018-Jun-09 04:01N 34°24' E 135°09'510.6
2018-Jun-09 03:30N 34°20' E 135°05'510.3
2018-Jun-09 03:00N 34°15' E 135°03'611.0
2018-Jun-09 02:30N 34°11' E 135°07'4 9.1
2018-Jun-09 02:01N 34°09' E 135°12'0 0.1
2018-Jun-09 01:22N 34°09' E 135°12'0 0.0
2018-Jun-09 00:59N 34°09' E 135°12'0 0.0
2018-Jun-09 00:13N 34°09' E 135°12'0 0.0
2018-Jun-08 23:56N 34°09' E 135°12'2 4.1
2018-Jun-08 23:30N 34°09' E 135°10'0 0.0
2018-Jun-08 22:59N 34°09' E 135°10'0 0.0
2018-Jun-08 22:31N 34°09' E 135°10'0 0.0
2018-Jun-08 22:00N 34°09' E 135°10'0 0.0
2018-Jun-08 21:30N 34°09' E 135°10'0 0.0
2018-Jun-08 21:00N 34°09' E 135°10'0 0.1
2018-Jun-08 20:31N 34°09' E 135°10'0 0.0
2018-Jun-08 20:00N 34°09' E 135°10'0 0.4
2018-Jun-08 19:30N 34°09' E 135°10'611.1
2018-Jun-08 18:58N 34°05' E 135°04'511.8
2018-Jun-08 18:30N 33°60' E 135°03'612.0
2018-Jun-08 17:59N 33°53' E 135°03'244 6.7
2018-Jun-07 05:17N 35°10' E 139°44'611.2
2018-Jun-07 04:47N 35°15' E 139°46'311.7
2018-Jun-07 04:30N 35°18' E 139°44'510.9
2018-Jun-07 04:01N 35°23' E 139°42'610.9
2018-Jun-07 03:30N 35°27' E 139°47'9 1.0
2018-Jun-06 18:30N 35°32' E 139°56'510.9
2018-Jun-06 18:00N 35°28' E 139°51'510.8
2018-Jun-06 17:30N 35°24' E 139°46'510.7
2018-Jun-06 17:01N 35°20' E 139°44'510.2
2018-Jun-06 16:30N 35°15' E 139°47'  

Dump ship's entire track history